sensor_id;sensor_type;location;lat;lon;timestamp;temperature;humidity
4215;DHT22;2121;48.062;7.850;2023-12-04T00:01:19;-5.60;99.90
4215;DHT22;2121;48.062;7.850;2023-12-04T00:03:45;-5.60;99.90
4215;DHT22;2121;48.062;7.850;2023-12-04T00:06:11;-5.60;99.90
4215;DHT22;2121;48.062;7.850;2023-12-04T00:08:37;-5.60;99.90
4215;DHT22;2121;48.062;7.850;2023-12-04T00:11:04;-5.60;99.90
4215;DHT22;2121;48.062;7.850;2023-12-04T00:13:30;-5.60;99.90
4215;DHT22;2121;48.062;7.850;2023-12-04T00:15:56;-5.60;99.90
4215;DHT22;2121;48.062;7.850;2023-12-04T00:18:22;-5.60;99.90
4215;DHT22;2121;48.062;7.850;2023-12-04T00:20:48;-5.50;99.90
4215;DHT22;2121;48.062;7.850;2023-12-04T00:23:14;-5.40;99.90
4215;DHT22;2121;48.062;7.850;2023-12-04T00:25:39;-5.40;99.90
4215;DHT22;2121;48.062;7.850;2023-12-04T00:28:05;-5.40;99.90
4215;DHT22;2121;48.062;7.850;2023-12-04T00:30:31;-5.30;99.90
4215;DHT22;2121;48.062;7.850;2023-12-04T00:32:57;-5.30;99.90
4215;DHT22;2121;48.062;7.850;2023-12-04T00:35:22;-5.30;99.90
4215;DHT22;2121;48.062;7.850;2023-12-04T00:37:48;-5.20;99.90
4215;DHT22;2121;48.062;7.850;2023-12-04T00:40:14;-5.10;99.90
4215;DHT22;2121;48.062;7.850;2023-12-04T00:42:40;-5.00;99.90
4215;DHT22;2121;48.062;7.850;2023-12-04T00:45:06;-5.00;99.90
4215;DHT22;2121;48.062;7.850;2023-12-04T00:47:32;-4.90;99.90
4215;DHT22;2121;48.062;7.850;2023-12-04T00:49:57;-4.90;99.90
4215;DHT22;2121;48.062;7.850;2023-12-04T00:52:23;-5.00;99.90
4215;DHT22;2121;48.062;7.850;2023-12-04T00:54:49;-5.10;99.90
4215;DHT22;2121;48.062;7.850;2023-12-04T00:57:15;-5.10;99.90
4215;DHT22;2121;48.062;7.850;2023-12-04T00:59:40;-5.10;99.90
4215;DHT22;2121;48.062;7.850;2023-12-04T01:02:07;-5.00;99.90
4215;DHT22;2121;48.062;7.850;2023-12-04T01:04:33;-4.80;99.90
4215;DHT22;2121;48.062;7.850;2023-12-04T01:06:59;-4.70;99.90
4215;DHT22;2121;48.062;7.850;2023-12-04T01:09:25;-4.80;99.90
4215;DHT22;2121;48.062;7.850;2023-12-04T01:11:54;-5.00;99.90
4215;DHT22;2121;48.062;7.850;2023-12-04T01:14:20;-5.10;99.90
4215;DHT22;2121;48.062;7.850;2023-12-04T01:16:46;-4.90;99.90
4215;DHT22;2121;48.062;7.850;2023-12-04T01:19:12;-4.90;99.90
4215;DHT22;2121;48.062;7.850;2023-12-04T01:21:38;-5.00;99.90
4215;DHT22;2121;48.062;7.850;2023-12-04T01:24:04;-5.10;99.90
4215;DHT22;2121;48.062;7.850;2023-12-04T01:26:30;-5.20;99.90
4215;DHT22;2121;48.062;7.850;2023-12-04T01:28:55;-5.30;99.90
4215;DHT22;2121;48.062;7.850;2023-12-04T01:31:21;-5.30;99.90
4215;DHT22;2121;48.062;7.850;2023-12-04T01:33:47;-5.20;99.90
4215;DHT22;2121;48.062;7.850;2023-12-04T01:36:13;-5.10;99.90
4215;DHT22;2121;48.062;7.850;2023-12-04T01:38:39;-5.20;99.90
4215;DHT22;2121;48.062;7.850;2023-12-04T01:41:05;-5.30;99.90
4215;DHT22;2121;48.062;7.850;2023-12-04T01:43:31;-5.40;99.90
4215;DHT22;2121;48.062;7.850;2023-12-04T01:45:57;-5.40;99.90
4215;DHT22;2121;48.062;7.850;2023-12-04T01:48:25;-5.50;99.90
4215;DHT22;2121;48.062;7.850;2023-12-04T01:50:52;-5.50;99.90
4215;DHT22;2121;48.062;7.850;2023-12-04T01:53:18;-5.40;99.90
4215;DHT22;2121;48.062;7.850;2023-12-04T01:55:45;-5.40;99.90
4215;DHT22;2121;48.062;7.850;2023-12-04T01:58:11;-5.30;99.90
4215;DHT22;2121;48.062;7.850;2023-12-04T02:00:37;-5.30;99.90
4215;DHT22;2121;48.062;7.850;2023-12-04T02:03:04;-5.30;99.90
4215;DHT22;2121;48.062;7.850;2023-12-04T02:05:31;-5.20;99.90
4215;DHT22;2121;48.062;7.850;2023-12-04T02:07:57;-5.20;99.90
4215;DHT22;2121;48.062;7.850;2023-12-04T02:10:23;-5.10;99.90
4215;DHT22;2121;48.062;7.850;2023-12-04T02:12:50;-5.00;99.90
4215;DHT22;2121;48.062;7.850;2023-12-04T02:15:16;-5.00;99.90
4215;DHT22;2121;48.062;7.850;2023-12-04T02:17:43;-4.90;99.90
4215;DHT22;2121;48.062;7.850;2023-12-04T02:20:12;-4.80;99.90
4215;DHT22;2121;48.062;7.850;2023-12-04T02:22:38;-4.80;99.90
4215;DHT22;2121;48.062;7.850;2023-12-04T02:25:05;-4.80;99.90
4215;DHT22;2121;48.062;7.850;2023-12-04T02:27:47;-4.60;99.90
4215;DHT22;2121;48.062;7.850;2023-12-04T02:30:18;-4.70;99.90
4215;DHT22;2121;48.062;7.850;2023-12-04T02:32:47;-4.60;99.90
4215;DHT22;2121;48.062;7.850;2023-12-04T02:35:20;-4.60;99.90
4215;DHT22;2121;48.062;7.850;2023-12-04T02:37:47;-4.60;99.90
4215;DHT22;2121;48.062;7.850;2023-12-04T02:40:14;-4.60;99.90
4215;DHT22;2121;48.062;7.850;2023-12-04T02:42:40;-4.60;99.90
4215;DHT22;2121;48.062;7.850;2023-12-04T02:45:07;-4.60;99.90
4215;DHT22;2121;48.062;7.850;2023-12-04T02:47:33;-4.50;99.90
4215;DHT22;2121;48.062;7.850;2023-12-04T02:49:58;-4.50;99.90
4215;DHT22;2121;48.062;7.850;2023-12-04T02:52:24;-4.50;99.90
4215;DHT22;2121;48.062;7.850;2023-12-04T02:54:50;-4.40;99.90
4215;DHT22;2121;48.062;7.850;2023-12-04T02:57:16;-4.30;99.90
4215;DHT22;2121;48.062;7.850;2023-12-04T02:59:42;-4.30;99.90
4215;DHT22;2121;48.062;7.850;2023-12-04T03:02:08;-4.30;99.90
4215;DHT22;2121;48.062;7.850;2023-12-04T03:04:34;-4.30;99.90
4215;DHT22;2121;48.062;7.850;2023-12-04T03:07:00;-4.30;99.90
4215;DHT22;2121;48.062;7.850;2023-12-04T03:09:26;-4.20;99.90
4215;DHT22;2121;48.062;7.850;2023-12-04T03:11:52;-4.20;99.90
4215;DHT22;2121;48.062;7.850;2023-12-04T03:14:18;-4.30;99.90
4215;DHT22;2121;48.062;7.850;2023-12-04T03:16:43;-4.20;99.90
4215;DHT22;2121;48.062;7.850;2023-12-04T03:19:09;-4.20;99.90
4215;DHT22;2121;48.062;7.850;2023-12-04T03:21:35;-4.10;99.90
4215;DHT22;2121;48.062;7.850;2023-12-04T03:24:00;-4.10;99.90
4215;DHT22;2121;48.062;7.850;2023-12-04T03:26:26;-4.10;99.90
4215;DHT22;2121;48.062;7.850;2023-12-04T03:28:53;-4.10;99.90
4215;DHT22;2121;48.062;7.850;2023-12-04T03:31:19;-4.10;99.90
4215;DHT22;2121;48.062;7.850;2023-12-04T03:33:45;-4.00;99.90
4215;DHT22;2121;48.062;7.850;2023-12-04T03:36:10;-3.90;99.90
4215;DHT22;2121;48.062;7.850;2023-12-04T03:38:36;-3.80;99.90
4215;DHT22;2121;48.062;7.850;2023-12-04T03:41:02;-3.80;99.90
4215;DHT22;2121;48.062;7.850;2023-12-04T03:43:28;-3.80;99.90
4215;DHT22;2121;48.062;7.850;2023-12-04T03:45:53;-3.80;99.90
4215;DHT22;2121;48.062;7.850;2023-12-04T03:48:19;-3.70;99.90
4215;DHT22;2121;48.062;7.850;2023-12-04T03:50:45;-3.70;99.90
4215;DHT22;2121;48.062;7.850;2023-12-04T03:53:10;-3.60;99.90
4215;DHT22;2121;48.062;7.850;2023-12-04T03:55:37;-3.60;99.90
4215;DHT22;2121;48.062;7.850;2023-12-04T03:58:03;-3.60;99.90
4215;DHT22;2121;48.062;7.850;2023-12-04T04:00:29;-3.60;99.90
4215;DHT22;2121;48.062;7.850;2023-12-04T04:02:55;-3.60;99.90
4215;DHT22;2121;48.062;7.850;2023-12-04T04:05:21;-3.60;99.90
4215;DHT22;2121;48.062;7.850;2023-12-04T04:07:46;-3.60;99.90
4215;DHT22;2121;48.062;7.850;2023-12-04T04:10:12;-3.60;99.90
4215;DHT22;2121;48.062;7.850;2023-12-04T04:12:38;-3.60;99.90
4215;DHT22;2121;48.062;7.850;2023-12-04T04:15:04;-3.60;99.90
4215;DHT22;2121;48.062;7.850;2023-12-04T04:17:31;-3.60;99.90
4215;DHT22;2121;48.062;7.850;2023-12-04T04:19:58;-3.50;99.90
4215;DHT22;2121;48.062;7.850;2023-12-04T04:22:24;-3.40;99.90
4215;DHT22;2121;48.062;7.850;2023-12-04T04:24:50;-3.40;99.90
4215;DHT22;2121;48.062;7.850;2023-12-04T04:27:16;-3.30;99.90
4215;DHT22;2121;48.062;7.850;2023-12-04T04:29:41;-3.20;99.90
4215;DHT22;2121;48.062;7.850;2023-12-04T04:32:07;-3.20;99.90
4215;DHT22;2121;48.062;7.850;2023-12-04T04:34:33;-3.20;99.90
4215;DHT22;2121;48.062;7.850;2023-12-04T04:36:59;-3.20;99.90
4215;DHT22;2121;48.062;7.850;2023-12-04T04:39:25;-3.20;99.90
4215;DHT22;2121;48.062;7.850;2023-12-04T04:41:50;-3.20;99.90
4215;DHT22;2121;48.062;7.850;2023-12-04T04:44:16;-3.20;99.90
4215;DHT22;2121;48.062;7.850;2023-12-04T04:46:42;-3.20;99.90
4215;DHT22;2121;48.062;7.850;2023-12-04T04:49:07;-3.20;99.90
4215;DHT22;2121;48.062;7.850;2023-12-04T04:51:34;-3.20;99.90
4215;DHT22;2121;48.062;7.850;2023-12-04T04:54:00;-3.30;99.90
4215;DHT22;2121;48.062;7.850;2023-12-04T04:56:27;-3.30;99.90
4215;DHT22;2121;48.062;7.850;2023-12-04T04:58:53;-3.40;99.90
4215;DHT22;2121;48.062;7.850;2023-12-04T05:01:18;-3.40;99.90
4215;DHT22;2121;48.062;7.850;2023-12-04T05:03:44;-3.50;99.90
4215;DHT22;2121;48.062;7.850;2023-12-04T05:06:10;-3.50;99.90
4215;DHT22;2121;48.062;7.850;2023-12-04T05:08:36;-3.40;99.90
4215;DHT22;2121;48.062;7.850;2023-12-04T05:11:02;-3.40;99.90
4215;DHT22;2121;48.062;7.850;2023-12-04T05:13:27;-3.30;99.90
4215;DHT22;2121;48.062;7.850;2023-12-04T05:15:53;-3.20;99.90
4215;DHT22;2121;48.062;7.850;2023-12-04T05:18:19;-3.20;99.90
4215;DHT22;2121;48.062;7.850;2023-12-04T05:20:44;-3.30;99.90
4215;DHT22;2121;48.062;7.850;2023-12-04T05:23:10;-3.30;99.90
4215;DHT22;2121;48.062;7.850;2023-12-04T05:25:36;-3.30;99.90
4215;DHT22;2121;48.062;7.850;2023-12-04T05:28:02;-3.30;99.90
4215;DHT22;2121;48.062;7.850;2023-12-04T05:30:28;-3.20;99.90
4215;DHT22;2121;48.062;7.850;2023-12-04T05:32:53;-3.20;99.90
4215;DHT22;2121;48.062;7.850;2023-12-04T05:35:20;-3.20;99.90
4215;DHT22;2121;48.062;7.850;2023-12-04T05:37:45;-3.10;99.90
4215;DHT22;2121;48.062;7.850;2023-12-04T05:40:12;-3.10;99.90
4215;DHT22;2121;48.062;7.850;2023-12-04T05:42:37;-3.10;99.90
4215;DHT22;2121;48.062;7.850;2023-12-04T05:45:03;-3.00;99.90
4215;DHT22;2121;48.062;7.850;2023-12-04T05:47:29;-3.00;99.90
4215;DHT22;2121;48.062;7.850;2023-12-04T05:49:55;-3.10;99.90
4215;DHT22;2121;48.062;7.850;2023-12-04T05:52:21;-3.10;99.90
4215;DHT22;2121;48.062;7.850;2023-12-04T05:54:47;-3.10;99.90
4215;DHT22;2121;48.062;7.850;2023-12-04T05:57:12;-3.10;99.90
4215;DHT22;2121;48.062;7.850;2023-12-04T05:59:38;-3.10;99.90
4215;DHT22;2121;48.062;7.850;2023-12-04T06:02:04;-3.20;99.90
4215;DHT22;2121;48.062;7.850;2023-12-04T06:04:30;-3.10;99.90
4215;DHT22;2121;48.062;7.850;2023-12-04T06:06:55;-3.00;99.90
4215;DHT22;2121;48.062;7.850;2023-12-04T06:09:21;-2.90;99.90
4215;DHT22;2121;48.062;7.850;2023-12-04T06:11:47;-2.90;99.90
4215;DHT22;2121;48.062;7.850;2023-12-04T06:14:12;-2.80;99.90
4215;DHT22;2121;48.062;7.850;2023-12-04T06:16:38;-2.90;99.90
4215;DHT22;2121;48.062;7.850;2023-12-04T06:19:04;-2.90;99.90
4215;DHT22;2121;48.062;7.850;2023-12-04T06:21:31;-3.00;99.90
4215;DHT22;2121;48.062;7.850;2023-12-04T06:23:57;-3.00;99.90
4215;DHT22;2121;48.062;7.850;2023-12-04T06:26:24;-3.10;99.90
4215;DHT22;2121;48.062;7.850;2023-12-04T06:28:50;-3.10;99.90
4215;DHT22;2121;48.062;7.850;2023-12-04T06:31:16;-3.10;99.90
4215;DHT22;2121;48.062;7.850;2023-12-04T06:33:43;-3.20;99.90
4215;DHT22;2121;48.062;7.850;2023-12-04T06:36:09;-2.90;99.90
4215;DHT22;2121;48.062;7.850;2023-12-04T06:38:40;-2.90;99.90
4215;DHT22;2121;48.062;7.850;2023-12-04T06:41:07;-2.90;99.90
4215;DHT22;2121;48.062;7.850;2023-12-04T06:43:34;-2.80;99.90
4215;DHT22;2121;48.062;7.850;2023-12-04T06:46:00;-2.90;99.90
4215;DHT22;2121;48.062;7.850;2023-12-04T06:48:26;-3.00;99.90
4215;DHT22;2121;48.062;7.850;2023-12-04T06:50:52;-3.20;99.90
4215;DHT22;2121;48.062;7.850;2023-12-04T06:53:18;-3.00;99.90
4215;DHT22;2121;48.062;7.850;2023-12-04T06:55:44;-3.00;99.90
4215;DHT22;2121;48.062;7.850;2023-12-04T06:58:09;-3.00;99.90
4215;DHT22;2121;48.062;7.850;2023-12-04T07:00:35;-2.90;99.90
4215;DHT22;2121;48.062;7.850;2023-12-04T07:03:01;-2.80;99.90
4215;DHT22;2121;48.062;7.850;2023-12-04T07:05:28;-2.80;99.90
4215;DHT22;2121;48.062;7.850;2023-12-04T07:07:53;-2.80;99.90
4215;DHT22;2121;48.062;7.850;2023-12-04T07:10:19;-2.80;99.90
4215;DHT22;2121;48.062;7.850;2023-12-04T07:12:45;-2.70;99.90
4215;DHT22;2121;48.062;7.850;2023-12-04T07:15:11;-2.70;99.90
4215;DHT22;2121;48.062;7.850;2023-12-04T07:17:38;-2.70;99.90
4215;DHT22;2121;48.062;7.850;2023-12-04T07:20:05;-2.80;99.90
4215;DHT22;2121;48.062;7.850;2023-12-04T07:22:34;-2.80;99.90
4215;DHT22;2121;48.062;7.850;2023-12-04T07:25:00;-2.90;99.90
4215;DHT22;2121;48.062;7.850;2023-12-04T07:27:26;-2.90;99.90
4215;DHT22;2121;48.062;7.850;2023-12-04T07:29:51;-2.80;99.90
4215;DHT22;2121;48.062;7.850;2023-12-04T07:32:17;-2.70;99.90
4215;DHT22;2121;48.062;7.850;2023-12-04T07:34:43;-2.90;99.90
4215;DHT22;2121;48.062;7.850;2023-12-04T07:37:09;-2.90;99.90
4215;DHT22;2121;48.062;7.850;2023-12-04T07:39:35;-2.90;99.90
4215;DHT22;2121;48.062;7.850;2023-12-04T07:42:01;-2.80;99.90
4215;DHT22;2121;48.062;7.850;2023-12-04T07:44:27;-2.80;99.90
4215;DHT22;2121;48.062;7.850;2023-12-04T07:46:53;-2.70;99.90
4215;DHT22;2121;48.062;7.850;2023-12-04T07:49:19;-2.60;99.90
4215;DHT22;2121;48.062;7.850;2023-12-04T07:51:46;-2.30;99.90
4215;DHT22;2121;48.062;7.850;2023-12-04T07:54:11;-2.30;99.90
4215;DHT22;2121;48.062;7.850;2023-12-04T07:56:37;-2.40;99.90
4215;DHT22;2121;48.062;7.850;2023-12-04T07:59:03;-2.40;99.90
4215;DHT22;2121;48.062;7.850;2023-12-04T08:01:28;-2.30;99.90
4215;DHT22;2121;48.062;7.850;2023-12-04T08:03:54;-2.30;99.90
4215;DHT22;2121;48.062;7.850;2023-12-04T08:06:20;-2.30;99.90
4215;DHT22;2121;48.062;7.850;2023-12-04T08:08:46;-2.30;99.90
4215;DHT22;2121;48.062;7.850;2023-12-04T08:11:11;-2.30;99.90
4215;DHT22;2121;48.062;7.850;2023-12-04T08:13:39;-2.30;99.90
4215;DHT22;2121;48.062;7.850;2023-12-04T08:16:12;-2.40;99.90
4215;DHT22;2121;48.062;7.850;2023-12-04T08:18:38;-2.30;99.90
4215;DHT22;2121;48.062;7.850;2023-12-04T08:21:04;-2.30;99.90
4215;DHT22;2121;48.062;7.850;2023-12-04T08:23:30;-2.30;99.90
4215;DHT22;2121;48.062;7.850;2023-12-04T08:25:56;-2.30;99.90
4215;DHT22;2121;48.062;7.850;2023-12-04T08:28:22;-2.30;99.90
4215;DHT22;2121;48.062;7.850;2023-12-04T08:30:48;-2.30;99.90
4215;DHT22;2121;48.062;7.850;2023-12-04T08:33:14;-2.30;99.90
4215;DHT22;2121;48.062;7.850;2023-12-04T08:35:40;-2.30;99.90
4215;DHT22;2121;48.062;7.850;2023-12-04T08:38:06;-2.30;99.90
4215;DHT22;2121;48.062;7.850;2023-12-04T08:40:32;-2.20;99.90
4215;DHT22;2121;48.062;7.850;2023-12-04T08:42:57;-2.10;99.90
4215;DHT22;2121;48.062;7.850;2023-12-04T08:45:24;-2.00;99.90
4215;DHT22;2121;48.062;7.850;2023-12-04T08:47:50;-2.00;99.90
4215;DHT22;2121;48.062;7.850;2023-12-04T08:50:15;-1.90;99.90
4215;DHT22;2121;48.062;7.850;2023-12-04T08:52:42;-1.90;99.90
4215;DHT22;2121;48.062;7.850;2023-12-04T08:55:08;-1.70;99.90
4215;DHT22;2121;48.062;7.850;2023-12-04T08:57:34;-1.70;99.90
4215;DHT22;2121;48.062;7.850;2023-12-04T08:59:59;-1.90;99.90
4215;DHT22;2121;48.062;7.850;2023-12-04T09:02:25;-2.00;99.90
4215;DHT22;2121;48.062;7.850;2023-12-04T09:04:51;-2.10;99.90
4215;DHT22;2121;48.062;7.850;2023-12-04T09:07:16;-2.10;99.90
4215;DHT22;2121;48.062;7.850;2023-12-04T09:09:42;-2.10;99.90
4215;DHT22;2121;48.062;7.850;2023-12-04T09:12:09;-2.00;99.90
4215;DHT22;2121;48.062;7.850;2023-12-04T09:14:35;-1.90;99.90
4215;DHT22;2121;48.062;7.850;2023-12-04T09:17:01;-1.80;99.90
4215;DHT22;2121;48.062;7.850;2023-12-04T09:19:27;-1.80;99.90
4215;DHT22;2121;48.062;7.850;2023-12-04T09:21:53;-1.60;99.90
4215;DHT22;2121;48.062;7.850;2023-12-04T09:24:18;-1.50;99.90
4215;DHT22;2121;48.062;7.850;2023-12-04T09:26:44;-1.40;99.90
4215;DHT22;2121;48.062;7.850;2023-12-04T09:29:13;-1.30;99.90
4215;DHT22;2121;48.062;7.850;2023-12-04T09:31:39;-1.20;99.90
4215;DHT22;2121;48.062;7.850;2023-12-04T09:34:05;-1.20;99.90
4215;DHT22;2121;48.062;7.850;2023-12-04T09:36:31;-1.20;99.90
4215;DHT22;2121;48.062;7.850;2023-12-04T09:38:57;-1.10;99.90
4215;DHT22;2121;48.062;7.850;2023-12-04T09:41:22;-1.10;99.90
4215;DHT22;2121;48.062;7.850;2023-12-04T09:43:48;-1.00;99.90
4215;DHT22;2121;48.062;7.850;2023-12-04T09:46:15;-0.90;99.90
4215;DHT22;2121;48.062;7.850;2023-12-04T09:48:43;-0.80;99.90
4215;DHT22;2121;48.062;7.850;2023-12-04T09:51:09;-0.70;99.90
4215;DHT22;2121;48.062;7.850;2023-12-04T09:53:36;-0.60;99.90
4215;DHT22;2121;48.062;7.850;2023-12-04T09:56:03;-0.50;99.90
4215;DHT22;2121;48.062;7.850;2023-12-04T09:58:30;-0.50;99.90
4215;DHT22;2121;48.062;7.850;2023-12-04T10:01:00;-0.60;99.90
4215;DHT22;2121;48.062;7.850;2023-12-04T10:03:26;-0.70;99.90
4215;DHT22;2121;48.062;7.850;2023-12-04T10:05:54;-0.70;99.90
4215;DHT22;2121;48.062;7.850;2023-12-04T10:08:20;-0.50;99.90
4215;DHT22;2121;48.062;7.850;2023-12-04T10:10:47;-0.20;99.90
4215;DHT22;2121;48.062;7.850;2023-12-04T10:13:12;-0.30;99.90
4215;DHT22;2121;48.062;7.850;2023-12-04T10:15:50;-0.30;99.90
4215;DHT22;2121;48.062;7.850;2023-12-04T10:18:30;-0.50;99.90
4215;DHT22;2121;48.062;7.850;2023-12-04T10:20:58;-0.40;99.90
4215;DHT22;2121;48.062;7.850;2023-12-04T10:23:41;-0.30;99.90
4215;DHT22;2121;48.062;7.850;2023-12-04T10:26:08;-0.20;99.90
4215;DHT22;2121;48.062;7.850;2023-12-04T10:28:37;-0.10;99.90
4215;DHT22;2121;48.062;7.850;2023-12-04T10:31:03;0.00;99.90
4215;DHT22;2121;48.062;7.850;2023-12-04T10:33:32;0.00;99.90
4215;DHT22;2121;48.062;7.850;2023-12-04T10:35:58;-0.10;99.90
4215;DHT22;2121;48.062;7.850;2023-12-04T10:38:24;-0.10;99.90
4215;DHT22;2121;48.062;7.850;2023-12-04T10:40:52;0.00;99.90
4215;DHT22;2121;48.062;7.850;2023-12-04T10:43:19;0.10;99.90
4215;DHT22;2121;48.062;7.850;2023-12-04T10:45:48;0.20;99.90
4215;DHT22;2121;48.062;7.850;2023-12-04T10:48:16;0.00;99.90
4215;DHT22;2121;48.062;7.850;2023-12-04T10:50:45;-0.10;99.90
4215;DHT22;2121;48.062;7.850;2023-12-04T10:53:13;-0.20;99.90
4215;DHT22;2121;48.062;7.850;2023-12-04T10:55:40;-0.30;99.90
4215;DHT22;2121;48.062;7.850;2023-12-04T10:58:09;-0.30;99.90
4215;DHT22;2121;48.062;7.850;2023-12-04T11:00:47;-0.40;99.90
4215;DHT22;2121;48.062;7.850;2023-12-04T11:03:28;-0.30;99.90
4215;DHT22;2121;48.062;7.850;2023-12-04T11:06:02;0.00;99.90
4215;DHT22;2121;48.062;7.850;2023-12-04T11:08:33;-0.10;99.90
4215;DHT22;2121;48.062;7.850;2023-12-04T11:11:04;0.00;99.90
4215;DHT22;2121;48.062;7.850;2023-12-04T11:13:41;0.10;99.90
4215;DHT22;2121;48.062;7.850;2023-12-04T11:16:18;0.20;99.90
4215;DHT22;2121;48.062;7.850;2023-12-04T11:18:51;0.20;99.90
4215;DHT22;2121;48.062;7.850;2023-12-04T11:21:22;0.10;99.90
4215;DHT22;2121;48.062;7.850;2023-12-04T11:23:49;0.00;99.90
4215;DHT22;2121;48.062;7.850;2023-12-04T11:26:16;0.20;99.90
4215;DHT22;2121;48.062;7.850;2023-12-04T11:28:43;0.20;99.90
4215;DHT22;2121;48.062;7.850;2023-12-04T11:31:10;0.20;99.90
4215;DHT22;2121;48.062;7.850;2023-12-04T11:33:37;0.30;99.90
4215;DHT22;2121;48.062;7.850;2023-12-04T11:36:11;0.30;99.90
4215;DHT22;2121;48.062;7.850;2023-12-04T11:38:39;0.20;99.90
4215;DHT22;2121;48.062;7.850;2023-12-04T11:41:22;0.20;99.90
4215;DHT22;2121;48.062;7.850;2023-12-04T11:43:50;0.30;99.90
4215;DHT22;2121;48.062;7.850;2023-12-04T11:46:20;0.30;99.90
4215;DHT22;2121;48.062;7.850;2023-12-04T11:48:53;0.20;99.90
4215;DHT22;2121;48.062;7.850;2023-12-04T11:54:14;0.30;99.90
4215;DHT22;2121;48.062;7.850;2023-12-04T11:56:57;0.40;99.90
4215;DHT22;2121;48.062;7.850;2023-12-04T11:59:24;0.40;99.90
4215;DHT22;2121;48.062;7.850;2023-12-04T12:01:54;0.50;99.90
4215;DHT22;2121;48.062;7.850;2023-12-04T12:04:22;0.60;99.90
4215;DHT22;2121;48.062;7.850;2023-12-04T12:06:48;0.70;99.90
4215;DHT22;2121;48.062;7.850;2023-12-04T12:09:15;0.90;99.90
4215;DHT22;2121;48.062;7.850;2023-12-04T12:11:41;0.90;99.90
4215;DHT22;2121;48.062;7.850;2023-12-04T12:14:06;1.00;99.90
4215;DHT22;2121;48.062;7.850;2023-12-04T12:16:32;1.10;99.90
4215;DHT22;2121;48.062;7.850;2023-12-04T12:18:58;1.10;99.90
4215;DHT22;2121;48.062;7.850;2023-12-04T12:21:24;1.10;99.90
4215;DHT22;2121;48.062;7.850;2023-12-04T12:23:51;1.10;99.90
4215;DHT22;2121;48.062;7.850;2023-12-04T12:26:16;1.00;99.90
4215;DHT22;2121;48.062;7.850;2023-12-04T12:28:44;1.10;99.90
4215;DHT22;2121;48.062;7.850;2023-12-04T12:31:10;1.00;99.90
4215;DHT22;2121;48.062;7.850;2023-12-04T12:33:36;0.80;99.90
4215;DHT22;2121;48.062;7.850;2023-12-04T12:36:03;0.80;99.90
4215;DHT22;2121;48.062;7.850;2023-12-04T12:38:30;0.90;99.90
4215;DHT22;2121;48.062;7.850;2023-12-04T12:41:00;1.00;99.90
4215;DHT22;2121;48.062;7.850;2023-12-04T12:43:27;0.80;99.90
4215;DHT22;2121;48.062;7.850;2023-12-04T12:45:53;0.90;99.90
4215;DHT22;2121;48.062;7.850;2023-12-04T12:48:19;0.80;99.90
4215;DHT22;2121;48.062;7.850;2023-12-04T12:50:46;0.80;99.90
4215;DHT22;2121;48.062;7.850;2023-12-04T12:53:13;1.00;99.90
4215;DHT22;2121;48.062;7.850;2023-12-04T12:55:43;1.10;99.90
4215;DHT22;2121;48.062;7.850;2023-12-04T12:58:10;1.30;99.90
4215;DHT22;2121;48.062;7.850;2023-12-04T13:00:36;1.50;99.90
4215;DHT22;2121;48.062;7.850;2023-12-04T13:03:02;1.30;99.90
4215;DHT22;2121;48.062;7.850;2023-12-04T13:05:28;1.30;99.90
4215;DHT22;2121;48.062;7.850;2023-12-04T13:07:54;1.30;99.90
4215;DHT22;2121;48.062;7.850;2023-12-04T13:10:21;1.30;99.90
4215;DHT22;2121;48.062;7.850;2023-12-04T13:12:49;1.20;99.90
4215;DHT22;2121;48.062;7.850;2023-12-04T13:15:18;1.20;99.90
4215;DHT22;2121;48.062;7.850;2023-12-04T13:17:43;1.30;99.90
4215;DHT22;2121;48.062;7.850;2023-12-04T13:20:10;1.10;99.90
4215;DHT22;2121;48.062;7.850;2023-12-04T13:22:39;1.00;99.90
4215;DHT22;2121;48.062;7.850;2023-12-04T13:25:06;1.00;99.90
4215;DHT22;2121;48.062;7.850;2023-12-04T13:27:38;1.20;99.90
4215;DHT22;2121;48.062;7.850;2023-12-04T13:30:06;1.40;99.90
4215;DHT22;2121;48.062;7.850;2023-12-04T13:32:35;1.50;99.90
4215;DHT22;2121;48.062;7.850;2023-12-04T13:35:02;1.50;99.90
4215;DHT22;2121;48.062;7.850;2023-12-04T13:37:30;1.60;99.90
4215;DHT22;2121;48.062;7.850;2023-12-04T13:39:56;1.70;99.90
4215;DHT22;2121;48.062;7.850;2023-12-04T13:42:34;1.70;99.90
4215;DHT22;2121;48.062;7.850;2023-12-04T13:45:19;1.70;99.90
4215;DHT22;2121;48.062;7.850;2023-12-04T13:47:48;1.60;99.90
4215;DHT22;2121;48.062;7.850;2023-12-04T13:50:15;1.50;99.90
4215;DHT22;2121;48.062;7.850;2023-12-04T13:52:40;1.60;99.90
4215;DHT22;2121;48.062;7.850;2023-12-04T13:55:09;1.70;99.90
4215;DHT22;2121;48.062;7.850;2023-12-04T13:57:46;1.80;99.90
4215;DHT22;2121;48.062;7.850;2023-12-04T14:00:21;1.70;99.90
4215;DHT22;2121;48.062;7.850;2023-12-04T14:02:46;1.70;99.90
4215;DHT22;2121;48.062;7.850;2023-12-04T14:05:12;1.80;99.90
4215;DHT22;2121;48.062;7.850;2023-12-04T14:07:41;1.80;99.90
4215;DHT22;2121;48.062;7.850;2023-12-04T14:10:09;1.80;99.90
4215;DHT22;2121;48.062;7.850;2023-12-04T14:12:35;1.60;99.90
4215;DHT22;2121;48.062;7.850;2023-12-04T14:15:02;1.60;99.90
4215;DHT22;2121;48.062;7.850;2023-12-04T14:17:28;1.50;99.90
4215;DHT22;2121;48.062;7.850;2023-12-04T14:19:54;1.70;99.90
4215;DHT22;2121;48.062;7.850;2023-12-04T14:22:20;1.60;99.90
4215;DHT22;2121;48.062;7.850;2023-12-04T14:24:46;1.40;99.90
4215;DHT22;2121;48.062;7.850;2023-12-04T14:27:11;1.30;99.90
4215;DHT22;2121;48.062;7.850;2023-12-04T14:29:38;1.20;99.90
4215;DHT22;2121;48.062;7.850;2023-12-04T14:32:05;1.10;99.90
4215;DHT22;2121;48.062;7.850;2023-12-04T14:34:31;1.00;99.90
4215;DHT22;2121;48.062;7.850;2023-12-04T14:36:58;1.10;99.90
4215;DHT22;2121;48.062;7.850;2023-12-04T14:39:24;1.10;99.90
4215;DHT22;2121;48.062;7.850;2023-12-04T14:41:50;1.30;99.90
4215;DHT22;2121;48.062;7.850;2023-12-04T14:44:18;1.30;99.90
4215;DHT22;2121;48.062;7.850;2023-12-04T14:46:43;1.40;99.90
4215;DHT22;2121;48.062;7.850;2023-12-04T14:49:11;1.50;99.90
4215;DHT22;2121;48.062;7.850;2023-12-04T14:51:36;1.50;99.90
4215;DHT22;2121;48.062;7.850;2023-12-04T14:54:02;1.50;99.90
4215;DHT22;2121;48.062;7.850;2023-12-04T14:56:47;1.50;99.90
4215;DHT22;2121;48.062;7.850;2023-12-04T14:59:46;1.50;99.90
4215;DHT22;2121;48.062;7.850;2023-12-04T15:02:40;1.40;99.90
4215;DHT22;2121;48.062;7.850;2023-12-04T15:05:24;1.50;99.90
4215;DHT22;2121;48.062;7.850;2023-12-04T15:08:28;1.50;99.90
4215;DHT22;2121;48.062;7.850;2023-12-04T15:11:12;1.40;99.90
4215;DHT22;2121;48.062;7.850;2023-12-04T15:13:49;1.40;99.90
4215;DHT22;2121;48.062;7.850;2023-12-04T15:16:27;1.40;99.90
4215;DHT22;2121;48.062;7.850;2023-12-04T15:19:00;1.40;99.90
4215;DHT22;2121;48.062;7.850;2023-12-04T15:21:31;1.30;99.90
4215;DHT22;2121;48.062;7.850;2023-12-04T15:23:58;1.20;99.90
4215;DHT22;2121;48.062;7.850;2023-12-04T15:26:24;1.30;99.90
4215;DHT22;2121;48.062;7.850;2023-12-04T15:28:50;1.20;99.90
4215;DHT22;2121;48.062;7.850;2023-12-04T15:31:15;1.20;99.90
4215;DHT22;2121;48.062;7.850;2023-12-04T15:33:41;1.20;99.90
4215;DHT22;2121;48.062;7.850;2023-12-04T15:36:07;1.20;99.90
4215;DHT22;2121;48.062;7.850;2023-12-04T15:38:35;1.20;99.90
4215;DHT22;2121;48.062;7.850;2023-12-04T15:41:01;1.10;99.90
4215;DHT22;2121;48.062;7.850;2023-12-04T15:43:26;1.10;99.90
4215;DHT22;2121;48.062;7.850;2023-12-04T15:45:52;1.20;99.90
4215;DHT22;2121;48.062;7.850;2023-12-04T15:48:18;1.20;99.90
4215;DHT22;2121;48.062;7.850;2023-12-04T15:50:43;1.20;99.90
4215;DHT22;2121;48.062;7.850;2023-12-04T15:53:09;1.20;99.90
4215;DHT22;2121;48.062;7.850;2023-12-04T15:55:35;1.20;99.90
4215;DHT22;2121;48.062;7.850;2023-12-04T15:58:00;1.10;99.90
4215;DHT22;2121;48.062;7.850;2023-12-04T16:00:28;1.10;99.90
4215;DHT22;2121;48.062;7.850;2023-12-04T16:02:54;1.00;99.90
4215;DHT22;2121;48.062;7.850;2023-12-04T16:05:19;1.20;99.90
4215;DHT22;2121;48.062;7.850;2023-12-04T16:07:45;1.00;99.90
4215;DHT22;2121;48.062;7.850;2023-12-04T16:10:12;0.90;99.90